sensor_id;sensor_type;location;lat;lon;timestamp;temperature;humidity
30678;DHT22;17437;47.188;8.896;2023-03-01T00:02:15;1.40;99.90
30678;DHT22;17437;47.188;8.896;2023-03-01T00:04:47;1.40;99.90
30678;DHT22;17437;47.188;8.896;2023-03-01T00:07:18;1.40;99.90
30678;DHT22;17437;47.188;8.896;2023-03-01T00:09:50;1.40;99.90
30678;DHT22;17437;47.188;8.896;2023-03-01T00:12:22;1.40;99.90
30678;DHT22;17437;47.188;8.896;2023-03-01T00:14:53;1.40;99.90
30678;DHT22;17437;47.188;8.896;2023-03-01T00:17:25;1.40;99.90
30678;DHT22;17437;47.188;8.896;2023-03-01T00:19:56;1.50;99.90
30678;DHT22;17437;47.188;8.896;2023-03-01T00:22:28;1.40;99.90
30678;DHT22;17437;47.188;8.896;2023-03-01T00:24:59;1.40;99.90
30678;DHT22;17437;47.188;8.896;2023-03-01T00:27:31;1.40;99.90
30678;DHT22;17437;47.188;8.896;2023-03-01T00:30:02;1.40;99.90
30678;DHT22;17437;47.188;8.896;2023-03-01T00:32:34;1.40;99.90
30678;DHT22;17437;47.188;8.896;2023-03-01T00:35:06;1.40;99.90
30678;DHT22;17437;47.188;8.896;2023-03-01T00:37:38;1.40;99.90
30678;DHT22;17437;47.188;8.896;2023-03-01T00:40:12;1.40;99.90
30678;DHT22;17437;47.188;8.896;2023-03-01T00:42:46;1.40;99.90
30678;DHT22;17437;47.188;8.896;2023-03-01T00:45:17;1.40;99.90
30678;DHT22;17437;47.188;8.896;2023-03-01T00:47:50;1.30;99.90
30678;DHT22;17437;47.188;8.896;2023-03-01T00:50:21;1.40;99.90
30678;DHT22;17437;47.188;8.896;2023-03-01T00:52:54;1.30;99.90
30678;DHT22;17437;47.188;8.896;2023-03-01T00:55:26;1.30;99.90
30678;DHT22;17437;47.188;8.896;2023-03-01T00:57:57;1.20;99.90
30678;DHT22;17437;47.188;8.896;2023-03-01T01:00:29;1.20;99.90
30678;DHT22;17437;47.188;8.896;2023-03-01T01:03:00;1.20;99.90
30678;DHT22;17437;47.188;8.896;2023-03-01T01:05:34;1.20;99.90
30678;DHT22;17437;47.188;8.896;2023-03-01T01:08:06;1.20;99.90
30678;DHT22;17437;47.188;8.896;2023-03-01T01:10:37;1.20;99.90
30678;DHT22;17437;47.188;8.896;2023-03-01T01:13:09;1.20;99.90
30678;DHT22;17437;47.188;8.896;2023-03-01T01:15:41;1.20;99.90
30678;DHT22;17437;47.188;8.896;2023-03-01T01:18:12;1.20;99.90
30678;DHT22;17437;47.188;8.896;2023-03-01T01:20:44;1.10;99.90
30678;DHT22;17437;47.188;8.896;2023-03-01T01:23:15;1.10;99.90
30678;DHT22;17437;47.188;8.896;2023-03-01T01:25:47;1.10;99.90
30678;DHT22;17437;47.188;8.896;2023-03-01T01:28:18;1.20;99.90
30678;DHT22;17437;47.188;8.896;2023-03-01T01:30:50;1.10;99.90
30678;DHT22;17437;47.188;8.896;2023-03-01T01:33:21;1.20;99.90
30678;DHT22;17437;47.188;8.896;2023-03-01T01:35:53;1.20;99.90
30678;DHT22;17437;47.188;8.896;2023-03-01T01:38:25;1.10;99.90
30678;DHT22;17437;47.188;8.896;2023-03-01T01:40:57;1.10;99.90
30678;DHT22;17437;47.188;8.896;2023-03-01T01:43:30;1.10;99.90
30678;DHT22;17437;47.188;8.896;2023-03-01T01:46:04;1.10;99.90
30678;DHT22;17437;47.188;8.896;2023-03-01T01:48:42;1.10;99.90
30678;DHT22;17437;47.188;8.896;2023-03-01T01:51:16;1.10;99.90
30678;DHT22;17437;47.188;8.896;2023-03-01T01:53:50;1.10;99.90
30678;DHT22;17437;47.188;8.896;2023-03-01T01:56:23;1.10;99.90
30678;DHT22;17437;47.188;8.896;2023-03-01T01:58:55;1.10;99.90
30678;DHT22;17437;47.188;8.896;2023-03-01T02:01:27;1.10;99.90
30678;DHT22;17437;47.188;8.896;2023-03-01T02:03:59;1.20;99.90
30678;DHT22;17437;47.188;8.896;2023-03-01T02:06:33;1.20;99.90
30678;DHT22;17437;47.188;8.896;2023-03-01T02:09:07;1.20;99.90
30678;DHT22;17437;47.188;8.896;2023-03-01T02:11:40;1.10;99.90
30678;DHT22;17437;47.188;8.896;2023-03-01T02:14:11;1.20;99.90
30678;DHT22;17437;47.188;8.896;2023-03-01T02:16:43;1.10;99.90
30678;DHT22;17437;47.188;8.896;2023-03-01T02:19:19;1.10;99.90
30678;DHT22;17437;47.188;8.896;2023-03-01T02:21:53;1.20;99.90
30678;DHT22;17437;47.188;8.896;2023-03-01T02:24:28;1.20;99.90
30678;DHT22;17437;47.188;8.896;2023-03-01T02:27:01;1.30;99.90
30678;DHT22;17437;47.188;8.896;2023-03-01T02:29:32;1.30;99.90
30678;DHT22;17437;47.188;8.896;2023-03-01T02:32:05;1.30;99.90
30678;DHT22;17437;47.188;8.896;2023-03-01T02:34:37;1.30;99.90
30678;DHT22;17437;47.188;8.896;2023-03-01T02:37:13;1.30;99.90
30678;DHT22;17437;47.188;8.896;2023-03-01T02:39:47;1.30;99.90
30678;DHT22;17437;47.188;8.896;2023-03-01T02:42:22;1.30;99.90
30678;DHT22;17437;47.188;8.896;2023-03-01T02:44:56;1.30;99.90
30678;DHT22;17437;47.188;8.896;2023-03-01T02:47:27;1.30;99.90
30678;DHT22;17437;47.188;8.896;2023-03-01T02:49:59;1.30;99.90
30678;DHT22;17437;47.188;8.896;2023-03-01T02:52:39;1.40;99.90
30678;DHT22;17437;47.188;8.896;2023-03-01T02:55:13;1.30;99.90
30678;DHT22;17437;47.188;8.896;2023-03-01T02:57:46;1.30;99.90
30678;DHT22;17437;47.188;8.896;2023-03-01T03:00:23;1.30;99.90
30678;DHT22;17437;47.188;8.896;2023-03-01T03:02:55;1.30;99.90
30678;DHT22;17437;47.188;8.896;2023-03-01T03:05:30;1.40;99.90
30678;DHT22;17437;47.188;8.896;2023-03-01T03:08:04;1.30;99.90
30678;DHT22;17437;47.188;8.896;2023-03-01T03:10:39;1.40;99.90
30678;DHT22;17437;47.188;8.896;2023-03-01T03:13:11;1.40;99.90
30678;DHT22;17437;47.188;8.896;2023-03-01T03:15:44;1.40;99.90
30678;DHT22;17437;47.188;8.896;2023-03-01T03:18:17;1.40;99.90
30678;DHT22;17437;47.188;8.896;2023-03-01T03:20:50;1.40;99.90
30678;DHT22;17437;47.188;8.896;2023-03-01T03:23:23;1.40;99.90
30678;DHT22;17437;47.188;8.896;2023-03-01T03:25:54;1.40;99.90
30678;DHT22;17437;47.188;8.896;2023-03-01T03:28:25;1.30;99.90
30678;DHT22;17437;47.188;8.896;2023-03-01T03:30:57;1.30;99.90
30678;DHT22;17437;47.188;8.896;2023-03-01T03:33:30;1.30;99.90
30678;DHT22;17437;47.188;8.896;2023-03-01T03:36:02;1.30;99.90
30678;DHT22;17437;47.188;8.896;2023-03-01T03:38:34;1.20;99.90
30678;DHT22;17437;47.188;8.896;2023-03-01T03:41:07;1.20;99.90
30678;DHT22;17437;47.188;8.896;2023-03-01T03:43:40;1.20;99.90
30678;DHT22;17437;47.188;8.896;2023-03-01T03:46:12;1.20;99.90
30678;DHT22;17437;47.188;8.896;2023-03-01T03:48:45;1.20;99.90
30678;DHT22;17437;47.188;8.896;2023-03-01T03:51:18;1.20;99.90
30678;DHT22;17437;47.188;8.896;2023-03-01T03:53:49;1.20;99.90
30678;DHT22;17437;47.188;8.896;2023-03-01T03:56:21;1.20;99.90
30678;DHT22;17437;47.188;8.896;2023-03-01T03:58:56;1.20;99.90
30678;DHT22;17437;47.188;8.896;2023-03-01T04:01:28;1.20;99.90
30678;DHT22;17437;47.188;8.896;2023-03-01T04:04:00;1.20;99.90
30678;DHT22;17437;47.188;8.896;2023-03-01T04:06:34;1.20;99.90
30678;DHT22;17437;47.188;8.896;2023-03-01T04:09:06;1.20;99.90
30678;DHT22;17437;47.188;8.896;2023-03-01T04:11:37;1.30;99.90
30678;DHT22;17437;47.188;8.896;2023-03-01T04:14:09;1.30;99.90
30678;DHT22;17437;47.188;8.896;2023-03-01T04:16:40;1.30;99.90
30678;DHT22;17437;47.188;8.896;2023-03-01T04:19:12;1.30;99.90
30678;DHT22;17437;47.188;8.896;2023-03-01T04:21:45;1.40;99.90
30678;DHT22;17437;47.188;8.896;2023-03-01T04:24:17;1.40;99.90
30678;DHT22;17437;47.188;8.896;2023-03-01T04:29:35;1.40;99.90
30678;DHT22;17437;47.188;8.896;2023-03-01T04:32:06;1.40;99.90
30678;DHT22;17437;47.188;8.896;2023-03-01T04:34:38;1.40;99.90
30678;DHT22;17437;47.188;8.896;2023-03-01T04:37:10;1.30;99.90
30678;DHT22;17437;47.188;8.896;2023-03-01T04:39:41;1.40;99.90
30678;DHT22;17437;47.188;8.896;2023-03-01T04:42:15;1.40;99.90
30678;DHT22;17437;47.188;8.896;2023-03-01T04:44:47;1.30;99.90
30678;DHT22;17437;47.188;8.896;2023-03-01T04:47:20;1.40;99.90
30678;DHT22;17437;47.188;8.896;2023-03-01T04:49:52;1.30;99.90
30678;DHT22;17437;47.188;8.896;2023-03-01T04:52:23;1.30;99.90
30678;DHT22;17437;47.188;8.896;2023-03-01T04:54:55;1.30;99.90
30678;DHT22;17437;47.188;8.896;2023-03-01T04:57:26;1.20;99.90
30678;DHT22;17437;47.188;8.896;2023-03-01T04:59:57;1.20;99.90
30678;DHT22;17437;47.188;8.896;2023-03-01T05:02:29;1.20;99.90
30678;DHT22;17437;47.188;8.896;2023-03-01T05:05:00;1.20;99.90
30678;DHT22;17437;47.188;8.896;2023-03-01T05:07:32;1.20;99.90
30678;DHT22;17437;47.188;8.896;2023-03-01T05:10:05;1.20;99.90
30678;DHT22;17437;47.188;8.896;2023-03-01T05:12:36;1.20;99.90
30678;DHT22;17437;47.188;8.896;2023-03-01T05:15:09;1.30;99.90
30678;DHT22;17437;47.188;8.896;2023-03-01T05:17:41;1.30;99.90
30678;DHT22;17437;47.188;8.896;2023-03-01T05:20:13;1.30;99.90
30678;DHT22;17437;47.188;8.896;2023-03-01T05:22:44;1.40;99.90
30678;DHT22;17437;47.188;8.896;2023-03-01T05:25:16;1.40;99.90
30678;DHT22;17437;47.188;8.896;2023-03-01T05:27:48;1.40;99.90
30678;DHT22;17437;47.188;8.896;2023-03-01T05:30:20;1.40;99.90
30678;DHT22;17437;47.188;8.896;2023-03-01T05:32:51;1.40;99.90
30678;DHT22;17437;47.188;8.896;2023-03-01T05:35:24;1.40;99.90
30678;DHT22;17437;47.188;8.896;2023-03-01T05:37:56;1.40;99.90
30678;DHT22;17437;47.188;8.896;2023-03-01T05:40:27;1.40;99.90
30678;DHT22;17437;47.188;8.896;2023-03-01T05:42:59;1.40;99.90
30678;DHT22;17437;47.188;8.896;2023-03-01T05:45:30;1.40;99.90
30678;DHT22;17437;47.188;8.896;2023-03-01T05:48:03;1.40;99.90
30678;DHT22;17437;47.188;8.896;2023-03-01T05:50:37;1.40;99.90
30678;DHT22;17437;47.188;8.896;2023-03-01T05:53:12;1.40;99.90
30678;DHT22;17437;47.188;8.896;2023-03-01T05:55:43;1.40;99.90
30678;DHT22;17437;47.188;8.896;2023-03-01T05:58:18;1.30;99.90
30678;DHT22;17437;47.188;8.896;2023-03-01T06:00:50;1.30;99.90
30678;DHT22;17437;47.188;8.896;2023-03-01T06:03:23;1.40;99.90
30678;DHT22;17437;47.188;8.896;2023-03-01T06:05:57;1.40;99.90
30678;DHT22;17437;47.188;8.896;2023-03-01T06:08:28;1.40;99.90
30678;DHT22;17437;47.188;8.896;2023-03-01T06:11:00;1.30;99.90
30678;DHT22;17437;47.188;8.896;2023-03-01T06:13:31;1.30;99.90
30678;DHT22;17437;47.188;8.896;2023-03-01T06:16:22;1.30;99.90
30678;DHT22;17437;47.188;8.896;2023-03-01T06:18:53;1.40;99.90
30678;DHT22;17437;47.188;8.896;2023-03-01T06:21:43;1.40;99.90
30678;DHT22;17437;47.188;8.896;2023-03-01T06:24:14;1.40;99.90
30678;DHT22;17437;47.188;8.896;2023-03-01T06:26:46;1.40;99.90
30678;DHT22;17437;47.188;8.896;2023-03-01T06:29:17;1.40;99.90
30678;DHT22;17437;47.188;8.896;2023-03-01T06:31:49;1.40;99.90
30678;DHT22;17437;47.188;8.896;2023-03-01T06:34:20;1.40;99.90
30678;DHT22;17437;47.188;8.896;2023-03-01T06:36:52;1.40;99.90
30678;DHT22;17437;47.188;8.896;2023-03-01T06:39:23;1.40;99.90
30678;DHT22;17437;47.188;8.896;2023-03-01T06:41:55;1.40;99.90
30678;DHT22;17437;47.188;8.896;2023-03-01T06:44:25;1.40;99.90
30678;DHT22;17437;47.188;8.896;2023-03-01T06:46:56;1.40;99.90
30678;DHT22;17437;47.188;8.896;2023-03-01T06:49:28;1.40;99.90
30678;DHT22;17437;47.188;8.896;2023-03-01T06:52:00;1.40;99.90
30678;DHT22;17437;47.188;8.896;2023-03-01T06:54:31;1.40;99.90
30678;DHT22;17437;47.188;8.896;2023-03-01T06:57:03;1.40;99.90
30678;DHT22;17437;47.188;8.896;2023-03-01T06:59:34;1.50;99.90
30678;DHT22;17437;47.188;8.896;2023-03-01T07:02:08;1.50;99.90
30678;DHT22;17437;47.188;8.896;2023-03-01T07:04:41;1.50;99.90
30678;DHT22;17437;47.188;8.896;2023-03-01T07:07:16;1.60;99.90
30678;DHT22;17437;47.188;8.896;2023-03-01T07:09:49;1.60;99.90
30678;DHT22;17437;47.188;8.896;2023-03-01T07:12:21;1.60;99.90
30678;DHT22;17437;47.188;8.896;2023-03-01T07:14:52;1.60;99.90
30678;DHT22;17437;47.188;8.896;2023-03-01T07:17:24;1.70;99.90
30678;DHT22;17437;47.188;8.896;2023-03-01T07:19:55;1.70;99.90
30678;DHT22;17437;47.188;8.896;2023-03-01T07:22:27;1.70;99.90
30678;DHT22;17437;47.188;8.896;2023-03-01T07:24:58;1.80;99.90
30678;DHT22;17437;47.188;8.896;2023-03-01T07:27:30;1.80;99.90
30678;DHT22;17437;47.188;8.896;2023-03-01T07:30:02;1.70;99.90
30678;DHT22;17437;47.188;8.896;2023-03-01T07:32:34;1.70;99.90
30678;DHT22;17437;47.188;8.896;2023-03-01T07:35:07;1.70;99.90
30678;DHT22;17437;47.188;8.896;2023-03-01T07:37:39;1.80;99.90
30678;DHT22;17437;47.188;8.896;2023-03-01T07:40:12;1.80;99.90
30678;DHT22;17437;47.188;8.896;2023-03-01T07:42:43;1.90;99.90
30678;DHT22;17437;47.188;8.896;2023-03-01T07:45:15;1.90;99.90
30678;DHT22;17437;47.188;8.896;2023-03-01T07:47:46;1.90;99.90
30678;DHT22;17437;47.188;8.896;2023-03-01T07:50:18;1.90;99.90
30678;DHT22;17437;47.188;8.896;2023-03-01T07:52:50;1.90;99.90
30678;DHT22;17437;47.188;8.896;2023-03-01T07:55:21;2.00;99.90
30678;DHT22;17437;47.188;8.896;2023-03-01T07:57:53;1.90;99.90
30678;DHT22;17437;47.188;8.896;2023-03-01T08:00:25;1.90;99.90
30678;DHT22;17437;47.188;8.896;2023-03-01T08:02:59;1.80;99.90
30678;DHT22;17437;47.188;8.896;2023-03-01T08:05:31;1.90;99.90
30678;DHT22;17437;47.188;8.896;2023-03-01T08:08:03;1.90;99.90
30678;DHT22;17437;47.188;8.896;2023-03-01T08:10:35;1.90;99.90
30678;DHT22;17437;47.188;8.896;2023-03-01T08:13:07;2.00;99.90
30678;DHT22;17437;47.188;8.896;2023-03-01T08:15:38;2.00;99.90
30678;DHT22;17437;47.188;8.896;2023-03-01T08:18:10;2.00;99.90
30678;DHT22;17437;47.188;8.896;2023-03-01T08:20:41;2.00;99.90
30678;DHT22;17437;47.188;8.896;2023-03-01T08:23:13;2.10;99.90
30678;DHT22;17437;47.188;8.896;2023-03-01T08:25:47;2.10;99.90
30678;DHT22;17437;47.188;8.896;2023-03-01T08:28:19;2.20;99.90
30678;DHT22;17437;47.188;8.896;2023-03-01T08:30:51;2.20;99.90
30678;DHT22;17437;47.188;8.896;2023-03-01T08:33:22;2.20;99.90
30678;DHT22;17437;47.188;8.896;2023-03-01T08:36:02;2.20;99.90
30678;DHT22;17437;47.188;8.896;2023-03-01T08:38:34;2.30;99.90
30678;DHT22;17437;47.188;8.896;2023-03-01T08:41:06;2.30;99.90
30678;DHT22;17437;47.188;8.896;2023-03-01T08:43:37;2.20;99.90
30678;DHT22;17437;47.188;8.896;2023-03-01T08:46:09;2.30;99.90
30678;DHT22;17437;47.188;8.896;2023-03-01T08:48:41;2.20;99.90
30678;DHT22;17437;47.188;8.896;2023-03-01T08:51:15;2.30;99.90
30678;DHT22;17437;47.188;8.896;2023-03-01T08:53:59;2.30;99.90
30678;DHT22;17437;47.188;8.896;2023-03-01T08:56:35;2.40;99.90
30678;DHT22;17437;47.188;8.896;2023-03-01T08:59:07;2.40;99.90
30678;DHT22;17437;47.188;8.896;2023-03-01T09:01:39;2.50;99.90
30678;DHT22;17437;47.188;8.896;2023-03-01T09:04:14;2.50;99.90
30678;DHT22;17437;47.188;8.896;2023-03-01T09:06:45;2.50;99.90
30678;DHT22;17437;47.188;8.896;2023-03-01T09:09:18;2.60;99.90
30678;DHT22;17437;47.188;8.896;2023-03-01T09:11:52;2.70;99.90
30678;DHT22;17437;47.188;8.896;2023-03-01T09:14:26;2.70;99.90
30678;DHT22;17437;47.188;8.896;2023-03-01T09:16:57;2.70;99.90
30678;DHT22;17437;47.188;8.896;2023-03-01T09:19:30;2.90;99.90
30678;DHT22;17437;47.188;8.896;2023-03-01T09:22:03;3.00;99.90
30678;DHT22;17437;47.188;8.896;2023-03-01T09:24:35;3.00;99.90
30678;DHT22;17437;47.188;8.896;2023-03-01T09:27:07;3.00;99.90
30678;DHT22;17437;47.188;8.896;2023-03-01T09:29:38;3.00;99.90
30678;DHT22;17437;47.188;8.896;2023-03-01T09:32:10;3.10;99.90
30678;DHT22;17437;47.188;8.896;2023-03-01T09:34:42;3.10;99.90
30678;DHT22;17437;47.188;8.896;2023-03-01T09:37:36;3.10;99.90
30678;DHT22;17437;47.188;8.896;2023-03-01T09:40:14;3.20;99.90
30678;DHT22;17437;47.188;8.896;2023-03-01T09:42:53;3.10;99.90
30678;DHT22;17437;47.188;8.896;2023-03-01T09:48:20;3.20;99.90
30678;DHT22;17437;47.188;8.896;2023-03-01T09:53:33;3.30;99.90
30678;DHT22;17437;47.188;8.896;2023-03-01T09:56:13;3.40;99.90
30678;DHT22;17437;47.188;8.896;2023-03-01T09:58:56;3.50;99.90
30678;DHT22;17437;47.188;8.896;2023-03-01T10:01:32;3.60;99.90
30678;DHT22;17437;47.188;8.896;2023-03-01T10:04:28;3.60;99.90
30678;DHT22;17437;47.188;8.896;2023-03-01T10:07:12;3.60;99.90
30678;DHT22;17437;47.188;8.896;2023-03-01T10:09:43;3.60;99.90
30678;DHT22;17437;47.188;8.896;2023-03-01T10:12:17;3.50;99.90
30678;DHT22;17437;47.188;8.896;2023-03-01T10:14:53;3.60;99.90
30678;DHT22;17437;47.188;8.896;2023-03-01T10:17:32;3.60;99.90
30678;DHT22;17437;47.188;8.896;2023-03-01T10:20:16;3.80;99.90
30678;DHT22;17437;47.188;8.896;2023-03-01T10:22:49;3.90;99.90
30678;DHT22;17437;47.188;8.896;2023-03-01T10:25:31;4.00;99.90
30678;DHT22;17437;47.188;8.896;2023-03-01T10:28:05;4.10;99.90
30678;DHT22;17437;47.188;8.896;2023-03-01T10:30:38;4.20;99.90
30678;DHT22;17437;47.188;8.896;2023-03-01T10:33:16;4.30;99.90
30678;DHT22;17437;47.188;8.896;2023-03-01T10:35:48;4.50;99.90
30678;DHT22;17437;47.188;8.896;2023-03-01T10:38:20;4.40;99.90
30678;DHT22;17437;47.188;8.896;2023-03-01T10:40:54;4.40;99.90
30678;DHT22;17437;47.188;8.896;2023-03-01T10:43:40;4.30;99.90
30678;DHT22;17437;47.188;8.896;2023-03-01T10:46:14;4.30;99.90
30678;DHT22;17437;47.188;8.896;2023-03-01T10:48:46;4.40;99.90
30678;DHT22;17437;47.188;8.896;2023-03-01T10:51:19;4.30;99.90
30678;DHT22;17437;47.188;8.896;2023-03-01T10:53:51;4.30;99.90
30678;DHT22;17437;47.188;8.896;2023-03-01T10:56:22;4.50;99.90
30678;DHT22;17437;47.188;8.896;2023-03-01T10:59:01;4.60;99.90
30678;DHT22;17437;47.188;8.896;2023-03-01T11:04:21;4.60;99.90
30678;DHT22;17437;47.188;8.896;2023-03-01T11:06:59;4.70;99.90
30678;DHT22;17437;47.188;8.896;2023-03-01T11:09:33;4.60;99.90
30678;DHT22;17437;47.188;8.896;2023-03-01T11:12:13;4.70;99.90
30678;DHT22;17437;47.188;8.896;2023-03-01T11:14:48;4.80;99.90
30678;DHT22;17437;47.188;8.896;2023-03-01T11:17:23;4.90;99.90
30678;DHT22;17437;47.188;8.896;2023-03-01T11:20:05;5.10;99.90
30678;DHT22;17437;47.188;8.896;2023-03-01T11:22:36;5.00;99.90
30678;DHT22;17437;47.188;8.896;2023-03-01T11:25:11;5.10;99.90
30678;DHT22;17437;47.188;8.896;2023-03-01T11:27:45;5.10;99.90
30678;DHT22;17437;47.188;8.896;2023-03-01T11:30:20;4.90;99.90
30678;DHT22;17437;47.188;8.896;2023-03-01T11:32:56;4.90;99.90
30678;DHT22;17437;47.188;8.896;2023-03-01T11:35:29;4.90;99.90
30678;DHT22;17437;47.188;8.896;2023-03-01T11:38:12;5.10;99.90
30678;DHT22;17437;47.188;8.896;2023-03-01T11:40:46;5.10;99.90
30678;DHT22;17437;47.188;8.896;2023-03-01T11:43:22;4.90;99.90
30678;DHT22;17437;47.188;8.896;2023-03-01T11:49:09;5.00;99.90
30678;DHT22;17437;47.188;8.896;2023-03-01T11:51:46;5.20;99.90
30678;DHT22;17437;47.188;8.896;2023-03-01T11:54:25;5.00;99.90
30678;DHT22;17437;47.188;8.896;2023-03-01T11:57:00;4.90;99.90
30678;DHT22;17437;47.188;8.896;2023-03-01T12:11:57;5.40;99.90
30678;DHT22;17437;47.188;8.896;2023-03-01T12:14:51;5.40;99.90
30678;DHT22;17437;47.188;8.896;2023-03-01T12:17:41;5.50;99.90
30678;DHT22;17437;47.188;8.896;2023-03-01T12:20:25;5.30;99.90
30678;DHT22;17437;47.188;8.896;2023-03-01T12:23:06;5.20;99.90
30678;DHT22;17437;47.188;8.896;2023-03-01T12:25:39;5.20;99.90
30678;DHT22;17437;47.188;8.896;2023-03-01T12:28:19;5.20;99.90
30678;DHT22;17437;47.188;8.896;2023-03-01T12:31:08;5.40;99.90
30678;DHT22;17437;47.188;8.896;2023-03-01T12:33:47;5.40;99.90
30678;DHT22;17437;47.188;8.896;2023-03-01T12:36:31;5.40;99.90
30678;DHT22;17437;47.188;8.896;2023-03-01T12:39:11;5.40;99.90
30678;DHT22;17437;47.188;8.896;2023-03-01T12:41:50;5.40;99.90
30678;DHT22;17437;47.188;8.896;2023-03-01T12:44:37;5.20;99.90
30678;DHT22;17437;47.188;8.896;2023-03-01T12:47:17;5.20;99.90
30678;DHT22;17437;47.188;8.896;2023-03-01T12:49:51;5.30;99.90
30678;DHT22;17437;47.188;8.896;2023-03-01T12:52:26;5.40;99.90
30678;DHT22;17437;47.188;8.896;2023-03-01T12:54:58;5.20;99.90
30678;DHT22;17437;47.188;8.896;2023-03-01T12:57:33;5.10;99.90
30678;DHT22;17437;47.188;8.896;2023-03-01T13:00:15;5.00;99.90
30678;DHT22;17437;47.188;8.896;2023-03-01T13:02:47;5.10;99.90
30678;DHT22;17437;47.188;8.896;2023-03-01T13:05:29;5.20;99.90
30678;DHT22;17437;47.188;8.896;2023-03-01T13:08:04;5.30;99.90
30678;DHT22;17437;47.188;8.896;2023-03-01T13:10:39;5.20;99.90
30678;DHT22;17437;47.188;8.896;2023-03-01T13:13:19;5.10;99.90
30678;DHT22;17437;47.188;8.896;2023-03-01T13:15:53;5.00;99.90
30678;DHT22;17437;47.188;8.896;2023-03-01T13:18:34;4.80;99.90
30678;DHT22;17437;47.188;8.896;2023-03-01T13:21:06;4.80;99.90
30678;DHT22;17437;47.188;8.896;2023-03-01T13:23:38;4.80;99.90
30678;DHT22;17437;47.188;8.896;2023-03-01T13:26:14;5.00;99.90
30678;DHT22;17437;47.188;8.896;2023-03-01T13:28:51;5.10;99.90
30678;DHT22;17437;47.188;8.896;2023-03-01T13:34:53;5.00;99.90
30678;DHT22;17437;47.188;8.896;2023-03-01T13:37:33;5.10;99.90
30678;DHT22;17437;47.188;8.896;2023-03-01T13:43:26;5.00;99.90
30678;DHT22;17437;47.188;8.896;2023-03-01T13:45:56;5.00;99.90
30678;DHT22;17437;47.188;8.896;2023-03-01T13:48:30;5.10;99.90
30678;DHT22;17437;47.188;8.896;2023-03-01T13:51:04;5.10;99.90
30678;DHT22;17437;47.188;8.896;2023-03-01T13:53:38;5.00;99.90
30678;DHT22;17437;47.188;8.896;2023-03-01T13:56:12;5.00;99.90
30678;DHT22;17437;47.188;8.896;2023-03-01T13:58:49;5.00;99.90
30678;DHT22;17437;47.188;8.896;2023-03-01T14:01:27;5.00;99.90
30678;DHT22;17437;47.188;8.896;2023-03-01T14:04:00;5.00;99.90
30678;DHT22;17437;47.188;8.896;2023-03-01T14:06:32;5.10;99.90
30678;DHT22;17437;47.188;8.896;2023-03-01T14:09:10;5.20;99.90
30678;DHT22;17437;47.188;8.896;2023-03-01T14:12:14;5.20;99.90
30678;DHT22;17437;47.188;8.896;2023-03-01T14:14:59;5.30;99.90
30678;DHT22;17437;47.188;8.896;2023-03-01T14:17:53;5.30;99.90
30678;DHT22;17437;47.188;8.896;2023-03-01T14:20:27;5.30;99.90
30678;DHT22;17437;47.188;8.896;2023-03-01T14:23:02;5.10;99.90
30678;DHT22;17437;47.188;8.896;2023-03-01T14:25:35;5.10;99.90
30678;DHT22;17437;47.188;8.896;2023-03-01T14:28:15;5.00;99.90
30678;DHT22;17437;47.188;8.896;2023-03-01T14:30:49;5.10;99.90
30678;DHT22;17437;47.188;8.896;2023-03-01T14:33:24;5.30;99.90
30678;DHT22;17437;47.188;8.896;2023-03-01T14:36:01;5.50;99.90
30678;DHT22;17437;47.188;8.896;2023-03-01T14:38:36;5.60;99.90
30678;DHT22;17437;47.188;8.896;2023-03-01T14:41:09;5.60;99.90
30678;DHT22;17437;47.188;8.896;2023-03-01T14:43:43;5.70;99.90
30678;DHT22;17437;47.188;8.896;2023-03-01T14:46:24;5.70;99.90
30678;DHT22;17437;47.188;8.896;2023-03-01T14:48:57;5.70;99.90
30678;DHT22;17437;47.188;8.896;2023-03-01T14:51:30;5.70;99.90
30678;DHT22;17437;47.188;8.896;2023-03-01T14:54:01;5.70;99.90
30678;DHT22;17437;47.188;8.896;2023-03-01T14:56:44;5.70;99.90
30678;DHT22;17437;47.188;8.896;2023-03-01T14:59:16;5.70;99.90
30678;DHT22;17437;47.188;8.896;2023-03-01T15:01:50;5.60;99.90
30678;DHT22;17437;47.188;8.896;2023-03-01T15:04:24;5.50;99.90
30678;DHT22;17437;47.188;8.896;2023-03-01T15:06:58;5.50;99.90
30678;DHT22;17437;47.188;8.896;2023-03-01T15:09:33;5.40;99.90
30678;DHT22;17437;47.188;8.896;2023-03-01T15:15:30;5.40;99.90
30678;DHT22;17437;47.188;8.896;2023-03-01T15:18:01;5.20;99.90
30678;DHT22;17437;47.188;8.896;2023-03-01T15:20:34;5.10;99.90
30678;DHT22;17437;47.188;8.896;2023-03-01T15:23:06;5.10;99.90
30678;DHT22;17437;47.188;8.896;2023-03-01T15:25:43;5.10;99.90
30678;DHT22;17437;47.188;8.896;2023-03-01T15:28:18;4.90;99.90
30678;DHT22;17437;47.188;8.896;2023-03-01T15:30:56;4.70;99.90
30678;DHT22;17437;47.188;8.896;2023-03-01T15:33:37;4.60;99.90
30678;DHT22;17437;47.188;8.896;2023-03-01T15:39:40;4.60;99.90
30678;DHT22;17437;47.188;8.896;2023-03-01T15:42:35;4.60;99.90
30678;DHT22;17437;47.188;8.896;2023-03-01T15:44:46;4.70;99.90
30678;DHT22;17437;47.188;8.896;2023-03-01T15:47:29;4.70;99.90
30678;DHT22;17437;47.188;8.896;2023-03-01T15:50:01;4.60;99.90
30678;DHT22;17437;47.188;8.896;2023-03-01T15:52:35;4.50;99.90
30678;DHT22;17437;47.188;8.896;2023-03-01T15:55:17;4.50;99.90
30678;DHT22;17437;47.188;8.896;2023-03-01T15:57:49;4.40;99.90
30678;DHT22;17437;47.188;8.896;2023-03-01T16:00:22;4.30;99.90
30678;DHT22;17437;47.188;8.896;2023-03-01T16:02:54;4.20;99.90
30678;DHT22;17437;47.188;8.896;2023-03-01T16:05:28;4.20;99.90
30678;DHT22;17437;47.188;8.896;2023-03-01T16:08:01;4.20;99.90
30678;DHT22;17437;47.188;8.896;2023-03-01T16:10:34;4.20;99.90
30678;DHT22;17437;47.188;8.896;2023-03-01T16:13:06;4.10;99.90
30678;DHT22;17437;47.188;8.896;2023-03-01T16:15:38;4.10;99.90
30678;DHT22;17437;47.188;8.896;2023-03-01T16:18:09;4.20;99.90
30678;DHT22;17437;47.188;8.896;2023-03-01T16:20:42;4.10;99.90
30678;DHT22;17437;47.188;8.896;2023-03-01T16:23:14;4.10;99.90
30678;DHT22;17437;47.188;8.896;2023-03-01T16:25:45;3.80;99.90
30678;DHT22;17437;47.188;8.896;2023-03-01T16:28:17;3.80;99.90
30678;DHT22;17437;47.188;8.896;2023-03-01T16:30:48;3.70;99.90
30678;DHT22;17437;47.188;8.896;2023-03-01T16:33:21;3.60;99.90
30678;DHT22;17437;47.188;8.896;2023-03-01T16:35:54;3.60;99.90
30678;DHT22;17437;47.188;8.896;2023-03-01T16:38:26;3.50;99.90
30678;DHT22;17437;47.188;8.896;2023-03-01T16:40:57;3.50;99.90
30678;DHT22;17437;47.188;8.896;2023-03-01T16:43:29;3.40;99.90
30678;DHT22;17437;47.188;8.896;2023-03-01T16:46:01;3.50;99.90
30678;DHT22;17437;47.188;8.896;2023-03-01T16:48:34;3.50;99.90
30678;DHT22;17437;47.188;8.896;2023-03-01T16:51:06;3.40;99.90
30678;DHT22;17437;47.188;8.896;2023-03-01T16:53:39;3.40;99.90
30678;DHT22;17437;47.188;8.896;2023-03-01T16:56:12;3.30;99.90
30678;DHT22;17437;47.188;8.896;2023-03-01T16:58:43;3.30;99.90
30678;DHT22;17437;47.188;8.896;2023-03-01T17:01:16;3.20;99.90
30678;DHT22;17437;47.188;8.896;2023-03-01T17:03:49;3.20;99.90
30678;DHT22;17437;47.188;8.896;2023-03-01T17:06:21;3.20;99.90
30678;DHT22;17437;47.188;8.896;2023-03-01T17:08:54;3.20;99.90